sensor_id;sensor_type;location;lat;lon;timestamp;pressure;altitude;pressure_sealevel;temperature;humidity
60228;BME280;46091;46.512;6.626;2023-09-19T05:10:08;96977.47;;;20.28;75.11
60228;BME280;46091;46.512;6.626;2023-09-19T05:12:11;96972.72;;;20.57;74.57
60228;BME280;46091;46.512;6.626;2023-09-19T05:14:14;96975.38;;;20.79;73.94
60228;BME280;46091;46.512;6.626;2023-09-19T05:16:17;96981.47;;;20.97;73.42
60228;BME280;46091;46.512;6.626;2023-09-19T05:18:20;96975.66;;;21.10;72.55
60228;BME280;46091;46.512;6.626;2023-09-19T05:20:23;96987.06;;;21.22;72.08
60228;BME280;46091;46.512;6.626;2023-09-19T05:22:34;96981.25;;;21.30;71.55
60228;BME280;46091;46.512;6.626;2023-09-19T05:24:35;96987.19;;;21.37;71.08
60228;BME280;46091;46.512;6.626;2023-09-19T05:26:40;96987.81;;;21.44;70.65
60228;BME280;46091;46.512;6.626;2023-09-19T05:28:43;96984.34;;;21.49;70.84
60228;BME280;46091;46.512;6.626;2023-09-19T05:30:46;96984.66;;;21.53;70.58
60228;BME280;46091;46.512;6.626;2023-09-19T05:32:49;96993.56;;;21.58;70.24
60228;BME280;46091;46.512;6.626;2023-09-19T05:34:53;96992.22;;;21.61;70.03
60228;BME280;46091;46.512;6.626;2023-09-19T05:36:58;96995.44;;;21.63;69.52
60228;BME280;46091;46.512;6.626;2023-09-19T05:39:00;97000.34;;;21.66;69.60
60228;BME280;46091;46.512;6.626;2023-09-19T05:41:03;96999.53;;;21.65;69.07
60228;BME280;46091;46.512;6.626;2023-09-19T05:43:06;97000.06;;;21.67;69.32
60228;BME280;46091;46.512;6.626;2023-09-19T05:45:10;97008.16;;;21.67;68.57
60228;BME280;46091;46.512;6.626;2023-09-19T05:47:14;97022.16;;;21.69;68.95
60228;BME280;46091;46.512;6.626;2023-09-19T05:49:17;97020.25;;;21.70;68.52
60228;BME280;46091;46.512;6.626;2023-09-19T05:51:20;97016.25;;;21.72;68.32
60228;BME280;46091;46.512;6.626;2023-09-19T05:53:24;97022.44;;;21.73;68.47
60228;BME280;46091;46.512;6.626;2023-09-19T05:55:27;97029.44;;;21.74;68.32
60228;BME280;46091;46.512;6.626;2023-09-19T05:57:30;97029.44;;;21.74;67.77
60228;BME280;46091;46.512;6.626;2023-09-19T05:59:33;97022.69;;;21.71;67.93
60228;BME280;46091;46.512;6.626;2023-09-19T06:01:37;97031.56;;;21.72;67.89
60228;BME280;46091;46.512;6.626;2023-09-19T06:03:40;97030.50;;;21.73;67.64
60228;BME280;46091;46.512;6.626;2023-09-19T06:05:42;97034.25;;;21.72;67.05
60228;BME280;46091;46.512;6.626;2023-09-19T06:07:45;97034.25;;;21.72;66.83
60228;BME280;46091;46.512;6.626;2023-09-19T06:09:48;97039.66;;;21.72;66.92
60228;BME280;46091;46.512;6.626;2023-09-19T06:11:51;97042.34;;;21.72;67.07
60228;BME280;46091;46.512;6.626;2023-09-19T06:13:54;97038.56;;;21.73;66.51
60228;BME280;46091;46.512;6.626;2023-09-19T06:15:59;97049.34;;;21.73;66.70
60228;BME280;46091;46.512;6.626;2023-09-19T06:18:04;97039.38;;;21.73;66.19
60228;BME280;46091;46.512;6.626;2023-09-19T06:20:08;97051.47;;;21.71;66.00
60228;BME280;46091;46.512;6.626;2023-09-19T06:22:15;97046.91;;;21.71;66.22
60228;BME280;46091;46.512;6.626;2023-09-19T06:24:19;97054.72;;;21.73;66.42
60228;BME280;46091;46.512;6.626;2023-09-19T06:26:22;97051.53;;;21.76;66.46
60228;BME280;46091;46.512;6.626;2023-09-19T06:28:28;97058.28;;;21.78;66.45
60228;BME280;46091;46.512;6.626;2023-09-19T06:30:31;97060.72;;;21.80;66.03
60228;BME280;46091;46.512;6.626;2023-09-19T06:32:35;97056.94;;;21.81;66.04
60228;BME280;46091;46.512;6.626;2023-09-19T06:34:38;97052.38;;;21.82;65.86
60228;BME280;46091;46.512;6.626;2023-09-19T06:36:43;97051.28;;;21.83;66.09
60228;BME280;46091;46.512;6.626;2023-09-19T06:38:47;97059.38;;;21.83;65.61
60228;BME280;46091;46.512;6.626;2023-09-19T06:40:48;97056.13;;;21.80;65.65
60228;BME280;46091;46.512;6.626;2023-09-19T06:42:52;97061.25;;;21.82;65.44
60228;BME280;46091;46.512;6.626;2023-09-19T06:44:55;97059.09;;;21.84;65.72
60228;BME280;46091;46.512;6.626;2023-09-19T06:46:57;97059.91;;;21.85;65.41
60228;BME280;46091;46.512;6.626;2023-09-19T06:49:02;97051.84;;;21.85;65.72
60228;BME280;46091;46.512;6.626;2023-09-19T06:51:08;97058.03;;;21.85;65.09
60228;BME280;46091;46.512;6.626;2023-09-19T06:53:11;97056.16;;;21.86;65.40
60228;BME280;46091;46.512;6.626;2023-09-19T06:55:14;97060.22;;;21.88;65.60
60228;BME280;46091;46.512;6.626;2023-09-19T06:57:17;97059.97;;;21.90;65.39
60228;BME280;46091;46.512;6.626;2023-09-19T06:59:21;97066.72;;;21.92;65.19
60228;BME280;46091;46.512;6.626;2023-09-19T07:01:24;97061.88;;;21.94;65.48
60228;BME280;46091;46.512;6.626;2023-09-19T07:03:28;97060.00;;;21.95;65.30
60228;BME280;46091;46.512;6.626;2023-09-19T07:05:32;97068.88;;;21.95;65.13
60228;BME280;46091;46.512;6.626;2023-09-19T07:07:35;97061.38;;;21.97;64.77
60228;BME280;46091;46.512;6.626;2023-09-19T07:09:38;97063.81;;;21.99;64.97
60228;BME280;46091;46.512;6.626;2023-09-19T07:11:40;97066.25;;;22.00;64.55
60228;BME280;46091;46.512;6.626;2023-09-19T07:13:44;97075.13;;;22.01;64.69
60228;BME280;46091;46.512;6.626;2023-09-19T07:15:47;97066.25;;;22.00;65.01
60228;BME280;46091;46.512;6.626;2023-09-19T07:17:52;97072.47;;;22.06;64.80
60228;BME280;46091;46.512;6.626;2023-09-19T07:19:55;97066.03;;;22.07;64.53
60228;BME280;46091;46.512;6.626;2023-09-19T07:22:01;97071.19;;;22.08;64.71
60228;BME280;46091;46.512;6.626;2023-09-19T07:24:04;97077.59;;;22.07;64.81
60228;BME280;46091;46.512;6.626;2023-09-19T07:26:09;97074.09;;;22.07;64.41
60228;BME280;46091;46.512;6.626;2023-09-19T07:28:12;97081.38;;;22.06;64.92
60228;BME280;46091;46.512;6.626;2023-09-19T07:30:15;97085.94;;;22.06;64.56
60228;BME280;46091;46.512;6.626;2023-09-19T07:32:18;97082.66;;;22.04;64.36
60228;BME280;46091;46.512;6.626;2023-09-19T07:34:22;97083.78;;;22.08;64.41
60228;BME280;46091;46.512;6.626;2023-09-19T07:36:25;97087.31;;;22.08;64.45
60228;BME280;46091;46.512;6.626;2023-09-19T07:38:32;97084.09;;;22.12;64.49
60228;BME280;46091;46.512;6.626;2023-09-19T07:40:37;97096.50;;;22.13;64.41
60228;BME280;46091;46.512;6.626;2023-09-19T07:42:40;97093.25;;;22.11;64.12
60228;BME280;46091;46.512;6.626;2023-09-19T07:44:43;97088.69;;;22.11;64.25
60228;BME280;46091;46.512;6.626;2023-09-19T07:46:48;97084.09;;;22.12;63.97
60228;BME280;46091;46.512;6.626;2023-09-19T07:48:52;97081.97;;;22.14;63.74
60228;BME280;46091;46.512;6.626;2023-09-19T07:50:55;97090.59;;;22.16;64.15
60228;BME280;46091;46.512;6.626;2023-09-19T07:52:58;97085.19;;;22.16;64.04
60228;BME280;46091;46.512;6.626;2023-09-19T07:55:03;97086.00;;;22.16;63.89
60228;BME280;46091;46.512;6.626;2023-09-19T07:57:09;97092.47;;;22.15;63.77
60228;BME280;46091;46.512;6.626;2023-09-19T07:59:12;97090.84;;;22.14;63.12
60228;BME280;46091;46.512;6.626;2023-09-19T08:01:15;97089.78;;;22.15;63.77
60228;BME280;46091;46.512;6.626;2023-09-19T08:03:18;97086.81;;;22.17;63.22
60228;BME280;46091;46.512;6.626;2023-09-19T08:05:21;97096.50;;;22.18;63.36
60228;BME280;46091;46.512;6.626;2023-09-19T08:07:25;97098.13;;;22.19;63.15
60228;BME280;46091;46.512;6.626;2023-09-19T08:09:28;97091.69;;;22.20;63.04
60228;BME280;46091;46.512;6.626;2023-09-19T08:11:36;97097.38;;;22.23;62.91
60228;BME280;46091;46.512;6.626;2023-09-19T08:13:39;97103.03;;;22.27;62.80
60228;BME280;46091;46.512;6.626;2023-09-19T08:15:45;97100.91;;;22.29;62.93
60228;BME280;46091;46.512;6.626;2023-09-19T08:17:48;97099.28;;;22.28;62.90
60228;BME280;46091;46.512;6.626;2023-09-19T08:19:52;97096.84;;;22.26;62.60
60228;BME280;46091;46.512;6.626;2023-09-19T08:21:55;97101.94;;;22.23;62.28
60228;BME280;46091;46.512;6.626;2023-09-19T08:24:00;97101.94;;;22.23;62.28
60228;BME280;46091;46.512;6.626;2023-09-19T08:26:05;97099.25;;;22.23;62.24
60228;BME280;46091;46.512;6.626;2023-09-19T08:28:10;97104.91;;;22.21;62.08
60228;BME280;46091;46.512;6.626;2023-09-19T08:30:21;97101.41;;;22.21;62.23
60228;BME280;46091;46.512;6.626;2023-09-19T08:32:28;97091.69;;;22.20;62.40
60228;BME280;46091;46.512;6.626;2023-09-19T08:34:31;97090.06;;;22.19;62.06
60228;BME280;46091;46.512;6.626;2023-09-19T08:36:34;97090.06;;;22.19;62.39
60228;BME280;46091;46.512;6.626;2023-09-19T08:38:38;97093.81;;;22.18;61.85
60228;BME280;46091;46.512;6.626;2023-09-19T08:40:40;97095.72;;;22.17;61.84
60228;BME280;46091;46.512;6.626;2023-09-19T08:42:48;97090.06;;;22.19;62.15
60228;BME280;46091;46.512;6.626;2023-09-19T08:44:55;97093.31;;;22.21;62.22
60228;BME280;46091;46.512;6.626;2023-09-19T08:47:02;97104.09;;;22.21;62.13
60228;BME280;46091;46.512;6.626;2023-09-19T08:49:17;97106.53;;;22.22;61.81
60228;BME280;46091;46.512;6.626;2023-09-19T08:51:27;97113.53;;;22.23;61.66
60228;BME280;46091;46.512;6.626;2023-09-19T08:53:38;97103.56;;;22.24;61.81
60228;BME280;46091;46.512;6.626;2023-09-19T08:55:43;97106.81;;;22.26;61.58
60228;BME280;46091;46.512;6.626;2023-09-19T08:57:49;97102.22;;;22.26;61.81
60228;BME280;46091;46.512;6.626;2023-09-19T08:59:56;97105.47;;;22.28;61.75
60228;BME280;46091;46.512;6.626;2023-09-19T09:02:02;97113.06;;;22.31;61.56
60228;BME280;46091;46.512;6.626;2023-09-19T09:04:08;97099.88;;;22.35;61.28
60228;BME280;46091;46.512;6.626;2023-09-19T09:06:15;97099.34;;;22.38;61.51
60228;BME280;46091;46.512;6.626;2023-09-19T09:08:19;97103.13;;;22.42;61.31
60228;BME280;46091;46.512;6.626;2023-09-19T09:10:25;97098.31;;;22.44;61.33
60228;BME280;46091;46.512;6.626;2023-09-19T09:12:29;97102.88;;;22.44;61.12
60228;BME280;46091;46.512;6.626;2023-09-19T09:14:32;97096.16;;;22.46;61.17
60228;BME280;46091;46.512;6.626;2023-09-19T09:16:37;97104.78;;;22.48;60.83
60228;BME280;46091;46.512;6.626;2023-09-19T09:18:40;97104.78;;;22.48;61.33
60228;BME280;46091;46.512;6.626;2023-09-19T09:20:45;97100.75;;;22.51;61.29
60228;BME280;46091;46.512;6.626;2023-09-19T09:22:53;97103.19;;;22.52;60.91
60228;BME280;46091;46.512;6.626;2023-09-19T09:24:57;97100.47;;;22.52;61.22
60228;BME280;46091;46.512;6.626;2023-09-19T09:27:03;97096.72;;;22.53;61.11
60228;BME280;46091;46.512;6.626;2023-09-19T09:29:11;97098.88;;;22.51;61.07
60228;BME280;46091;46.512;6.626;2023-09-19T09:31:24;97098.59;;;22.48;61.22
60228;BME280;46091;46.512;6.626;2023-09-19T09:33:29;97107.22;;;22.50;61.02
60228;BME280;46091;46.512;6.626;2023-09-19T09:35:32;97102.63;;;22.50;60.98
60228;BME280;46091;46.512;6.626;2023-09-19T09:37:34;97104.78;;;22.48;60.83
60228;BME280;46091;46.512;6.626;2023-09-19T09:39:40;97099.13;;;22.50;60.76
60228;BME280;46091;46.512;6.626;2023-09-19T09:41:42;97093.75;;;22.50;60.86
60228;BME280;46091;46.512;6.626;2023-09-19T09:43:45;97101.00;;;22.49;60.92
60228;BME280;46091;46.512;6.626;2023-09-19T09:46:06;97097.25;;;22.50;60.88
60228;BME280;46091;46.512;6.626;2023-09-19T09:48:12;97091.59;;;22.52;60.91
60228;BME280;46091;46.512;6.626;2023-09-19T09:50:25;97094.03;;;22.53;61.21
60228;BME280;46091;46.512;6.626;2023-09-19T09:52:44;97085.13;;;22.53;61.09
60228;BME280;46091;46.512;6.626;2023-09-19T09:54:58;97088.63;;;22.53;60.68
60228;BME280;46091;46.512;6.626;2023-09-19T09:57:03;97082.19;;;22.54;60.30
60228;BME280;46091;46.512;6.626;2023-09-19T09:59:16;97085.94;;;22.53;60.20
60228;BME280;46091;46.512;6.626;2023-09-19T10:01:20;97090.53;;;22.53;60.24
60228;BME280;46091;46.512;6.626;2023-09-19T10:03:32;97083.25;;;22.53;60.29
60228;BME280;46091;46.512;6.626;2023-09-19T10:05:45;97083.25;;;22.53;60.20
60228;BME280;46091;46.512;6.626;2023-09-19T10:07:48;97083.00;;;22.55;59.93
60228;BME280;46091;46.512;6.626;2023-09-19T10:09:53;97087.31;;;22.56;60.34
60228;BME280;46091;46.512;6.626;2023-09-19T10:12:03;97080.06;;;22.56;60.09
60228;BME280;46091;46.512;6.626;2023-09-19T10:14:11;97077.63;;;22.60;60.05
60228;BME280;46091;46.512;6.626;2023-09-19T10:16:16;97080.59;;;22.58;60.21
60228;BME280;46091;46.512;6.626;2023-09-19T10:18:22;97084.09;;;22.59;59.78
60228;BME280;46091;46.512;6.626;2023-09-19T10:20:26;97081.41;;;22.59;59.58
60228;BME280;46091;46.512;6.626;2023-09-19T10:22:48;97087.34;;;22.61;59.66
60228;BME280;46091;46.512;6.626;2023-09-19T10:24:59;97078.97;;;22.62;59.93
60228;BME280;46091;46.512;6.626;2023-09-19T10:27:06;97082.75;;;22.61;59.73
60228;BME280;46091;46.512;6.626;2023-09-19T10:29:10;97076.56;;;22.61;59.51
60228;BME280;46091;46.512;6.626;2023-09-19T10:31:19;97078.72;;;22.59;59.33
60228;BME280;46091;46.512;6.626;2023-09-19T10:33:24;97068.19;;;22.57;59.66
60228;BME280;46091;46.512;6.626;2023-09-19T10:35:28;97071.72;;;22.63;59.38
60228;BME280;46091;46.512;6.626;2023-09-19T10:37:32;97073.38;;;22.69;59.78
60228;BME280;46091;46.512;6.626;2023-09-19T10:39:39;97069.88;;;22.74;59.53
60228;BME280;46091;46.512;6.626;2023-09-19T10:41:43;97078.25;;;22.77;59.54
60228;BME280;46091;46.512;6.626;2023-09-19T10:43:48;97079.59;;;22.80;59.26
60228;BME280;46091;46.512;6.626;2023-09-19T10:45:51;97074.75;;;22.82;59.35
60228;BME280;46091;46.512;6.626;2023-09-19T10:47:55;97067.25;;;22.84;59.44
60228;BME280;46091;46.512;6.626;2023-09-19T10:49:58;97079.13;;;22.88;58.85
60228;BME280;46091;46.512;6.626;2023-09-19T10:52:02;97069.16;;;22.88;59.06
60228;BME280;46091;46.512;6.626;2023-09-19T10:54:08;97078.28;;;22.87;59.25
60228;BME280;46091;46.512;6.626;2023-09-19T10:56:24;97073.16;;;22.86;58.86
60228;BME280;46091;46.512;6.626;2023-09-19T10:58:31;97070.47;;;22.86;58.78
60228;BME280;46091;46.512;6.626;2023-09-19T11:00:53;97073.16;;;22.86;59.24
60228;BME280;46091;46.512;6.626;2023-09-19T11:03:21;97071.28;;;22.86;59.01
60228;BME280;46091;46.512;6.626;2023-09-19T11:05:32;97081.28;;;22.91;58.61
60228;BME280;46091;46.512;6.626;2023-09-19T11:07:56;97071.03;;;22.93;58.13
60228;BME280;46091;46.512;6.626;2023-09-19T11:09:59;97067.81;;;22.91;58.45
60228;BME280;46091;46.512;6.626;2023-09-19T11:12:06;97077.50;;;22.92;58.08
60228;BME280;46091;46.512;6.626;2023-09-19T11:14:15;97076.97;;;22.90;58.36
60228;BME280;46091;46.512;6.626;2023-09-19T11:16:18;97064.31;;;22.90;58.13
60228;BME280;46091;46.512;6.626;2023-09-19T11:18:56;97070.25;;;22.92;58.26
60228;BME280;46091;46.512;6.626;2023-09-19T11:23:33;97071.56;;;22.85;58.34
60228;BME280;46091;46.512;6.626;2023-09-19T11:25:41;97066.97;;;22.85;58.44
60228;BME280;46091;46.512;6.626;2023-09-19T11:30:32;97059.41;;;22.87;58.10
60228;BME280;46091;46.512;6.626;2023-09-19T11:35:59;97056.50;;;22.89;57.90
60228;BME280;46091;46.512;6.626;2023-09-19T11:38:03;97049.47;;;22.88;58.16
60228;BME280;46091;46.512;6.626;2023-09-19T11:40:17;97049.22;;;22.89;58.16
60228;BME280;46091;46.512;6.626;2023-09-19T11:42:43;97058.09;;;22.90;57.79
60228;BME280;46091;46.512;6.626;2023-09-19T11:44:47;97049.19;;;22.84;58.04
60228;BME280;46091;46.512;6.626;2023-09-19T11:46:55;97042.72;;;22.85;57.77
60228;BME280;46091;46.512;6.626;2023-09-19T11:49:05;97038.69;;;22.88;58.14
60228;BME280;46091;46.512;6.626;2023-09-19T11:51:12;97037.34;;;22.90;58.08
60228;BME280;46091;46.512;6.626;2023-09-19T11:53:21;97032.22;;;22.94;57.94
60228;BME280;46091;46.512;6.626;2023-09-19T11:55:28;97038.69;;;22.98;58.30
60228;BME280;46091;46.512;6.626;2023-09-19T11:57:33;97029.28;;;23.01;58.19
60228;BME280;46091;46.512;6.626;2023-09-19T11:59:38;97032.78;;;23.01;57.88
60228;BME280;46091;46.512;6.626;2023-09-19T12:01:50;97033.59;;;23.02;58.09
60228;BME280;46091;46.512;6.626;2023-09-19T12:03:58;97032.78;;;23.06;58.00
60228;BME280;46091;46.512;6.626;2023-09-19T12:06:10;97036.03;;;23.03;58.28
60228;BME280;46091;46.512;6.626;2023-09-19T12:08:14;97029.03;;;23.02;57.98
60228;BME280;46091;46.512;6.626;2023-09-19T12:10:18;97039.50;;;22.99;58.16
60228;BME280;46091;46.512;6.626;2023-09-19T12:12:26;97025.22;;;22.98;58.35
60228;BME280;46091;46.512;6.626;2023-09-19T12:14:30;97029.25;;;22.95;58.20
60228;BME280;46091;46.512;6.626;2023-09-19T12:16:33;97032.22;;;22.94;58.34
60228;BME280;46091;46.512;6.626;2023-09-19T12:18:38;97024.94;;;22.94;58.51
60228;BME280;46091;46.512;6.626;2023-09-19T12:20:45;97026.28;;;22.97;58.07
60228;BME280;46091;46.512;6.626;2023-09-19T12:22:52;97019.81;;;22.98;57.86
60228;BME280;46091;46.512;6.626;2023-09-19T12:25:05;97022.53;;;22.98;58.10
60228;BME280;46091;46.512;6.626;2023-09-19T12:27:09;97018.22;;;23.02;58.27
60228;BME280;46091;46.512;6.626;2023-09-19T12:29:14;97015.53;;;23.02;56.83
60228;BME280;46091;46.512;6.626;2023-09-19T12:31:17;97015.50;;;22.97;56.79
60228;BME280;46091;46.512;6.626;2023-09-19T12:33:21;97014.69;;;22.97;55.95
60228;BME280;46091;46.512;6.626;2023-09-19T12:35:28;97007.16;;;22.93;56.08
60228;BME280;46091;46.512;6.626;2023-09-19T12:37:33;97008.50;;;22.96;56.33
60228;BME280;46091;46.512;6.626;2023-09-19T12:39:43;97017.13;;;22.98;56.52
60228;BME280;46091;46.512;6.626;2023-09-19T12:41:50;97015.00;;;23.00;56.22
60228;BME280;46091;46.512;6.626;2023-09-19T12:43:52;97011.22;;;23.01;56.41
60228;BME280;46091;46.512;6.626;2023-09-19T12:45:56;97009.06;;;23.03;56.65
60228;BME280;46091;46.512;6.626;2023-09-19T12:48:18;97004.22;;;23.05;56.49
60228;BME280;46091;46.512;6.626;2023-09-19T12:50:23;97006.91;;;23.05;56.78
60228;BME280;46091;46.512;6.626;2023-09-19T12:52:36;97006.09;;;23.05;56.56
60228;BME280;46091;46.512;6.626;2023-09-19T12:54:39;97003.13;;;23.06;55.93
60228;BME280;46091;46.512;6.626;2023-09-19T12:56:42;96992.34;;;23.06;56.50
60228;BME280;46091;46.512;6.626;2023-09-19T12:58:51;96998.81;;;23.10;55.73
60228;BME280;46091;46.512;6.626;2023-09-19T13:00:56;96995.56;;;23.08;55.95
60228;BME280;46091;46.512;6.626;2023-09-19T13:03:11;96993.41;;;23.10;56.27
60228;BME280;46091;46.512;6.626;2023-09-19T13:05:18;96992.38;;;23.11;56.09
60228;BME280;46091;46.512;6.626;2023-09-19T13:07:41;96991.81;;;23.14;55.77
60228;BME280;46091;46.512;6.626;2023-09-19T13:10:03;96990.75;;;23.15;55.83
60228;BME280;46091;46.512;6.626;2023-09-19T13:12:35;96985.63;;;23.14;56.17
60228;BME280;46091;46.512;6.626;2023-09-19T13:14:40;96983.19;;;23.12;56.36
60228;BME280;46091;46.512;6.626;2023-09-19T13:17:02;96979.69;;;23.12;56.23
60228;BME280;46091;46.512;6.626;2023-09-19T13:19:06;96977.00;;;23.12;55.98
60228;BME280;46091;46.512;6.626;2023-09-19T13:21:11;96972.41;;;23.12;56.36
60228;BME280;46091;46.512;6.626;2023-09-19T13:23:27;96979.16;;;23.15;55.91
60228;BME280;46091;46.512;6.626;2023-09-19T13:25:30;96965.94;;;23.13;56.09
60228;BME280;46091;46.512;6.626;2023-09-19T13:27:34;96975.91;;;23.13;55.94
60228;BME280;46091;46.512;6.626;2023-09-19T13:29:36;96966.75;;;23.14;55.85
60228;BME280;46091;46.512;6.626;2023-09-19T13:31:39;96961.34;;;23.14;55.56
60228;BME280;46091;46.512;6.626;2023-09-19T13:33:44;96953.78;;;23.16;55.87
60228;BME280;46091;46.512;6.626;2023-09-19T13:35:47;96957.03;;;23.18;56.06
60228;BME280;46091;46.512;6.626;2023-09-19T13:37:50;96954.06;;;23.19;56.11
60228;BME280;46091;46.512;6.626;2023-09-19T13:39:55;96951.38;;;23.19;55.41
60228;BME280;46091;46.512;6.626;2023-09-19T13:41:58;96954.88;;;23.20;55.57
60228;BME280;46091;46.512;6.626;2023-09-19T13:44:00;96955.66;;;23.20;55.76
60228;BME280;46091;46.512;6.626;2023-09-19T13:46:04;96955.66;;;23.20;55.50
60228;BME280;46091;46.512;6.626;2023-09-19T13:48:09;96948.66;;;23.19;55.59
60228;BME280;46091;46.512;6.626;2023-09-19T13:50:13;96945.16;;;23.19;55.36
60228;BME280;46091;46.512;6.626;2023-09-19T13:52:16;96942.19;;;23.15;55.30
60228;BME280;46091;46.512;6.626;2023-09-19T13:54:19;96937.63;;;23.16;55.33
60228;BME280;46091;46.512;6.626;2023-09-19T13:56:23;96940.03;;;23.17;55.97
60228;BME280;46091;46.512;6.626;2023-09-19T13:58:29;96930.59;;;23.20;55.87
60228;BME280;46091;46.512;6.626;2023-09-19T14:00:35;96933.84;;;23.22;55.82
60228;BME280;46091;46.512;6.626;2023-09-19T14:02:38;96929.00;;;23.24;55.39
60228;BME280;46091;46.512;6.626;2023-09-19T14:04:41;96931.97;;;23.22;55.34
60228;BME280;46091;46.512;6.626;2023-09-19T14:06:44;96924.94;;;23.21;55.61
60228;BME280;46091;46.512;6.626;2023-09-19T14:08:47;96924.94;;;23.21;55.63
60228;BME280;46091;46.512;6.626;2023-09-19T14:10:51;96925.50;;;23.23;55.61
60228;BME280;46091;46.512;6.626;2023-09-19T14:12:56;96924.69;;;23.23;55.40
60228;BME280;46091;46.512;6.626;2023-09-19T14:14:59;96921.97;;;23.23;55.70
60228;BME280;46091;46.512;6.626;2023-09-19T14:17:03;96922.50;;;23.20;55.55
60228;BME280;46091;46.512;6.626;2023-09-19T14:19:06;96920.63;;;23.20;55.36
60228;BME280;46091;46.512;6.626;2023-09-19T14:21:09;96919.81;;;23.20;55.25
60228;BME280;46091;46.512;6.626;2023-09-19T14:23:12;96918.72;;;23.21;55.40
60228;BME280;46091;46.512;6.626;2023-09-19T14:25:16;96920.09;;;23.23;55.42
60228;BME280;46091;46.512;6.626;2023-09-19T14:27:19;96919.81;;;23.25;55.33
60228;BME280;46091;46.512;6.626;2023-09-19T14:29:23;96920.63;;;23.26;55.29
60228;BME280;46091;46.512;6.626;2023-09-19T14:31:26;96910.91;;;23.24;55.21
60228;BME280;46091;46.512;6.626;2023-09-19T14:33:29;96906.88;;;23.27;55.07
60228;BME280;46091;46.512;6.626;2023-09-19T14:35:31;96912.25;;;23.27;55.27
60228;BME280;46091;46.512;6.626;2023-09-19T14:37:34;96916.31;;;23.30;55.37
60228;BME280;46091;46.512;6.626;2023-09-19T14:39:40;96903.91;;;23.29;54.73
60228;BME280;46091;46.512;6.626;2023-09-19T14:41:46;96910.91;;;23.30;54.97
60228;BME280;46091;46.512;6.626;2023-09-19T14:43:49;96907.13;;;23.31;54.95
60228;BME280;46091;46.512;6.626;2023-09-19T14:45:52;96899.56;;;23.33;54.36
60228;BME280;46091;46.512;6.626;2023-09-19T14:47:55;96902.25;;;23.33;54.46
60228;BME280;46091;46.512;6.626;2023-09-19T14:49:58;96905.78;;;23.33;54.64
60228;BME280;46091;46.512;6.626;2023-09-19T14:52:01;96905.78;;;23.33;53.74
60228;BME280;46091;46.512;6.626;2023-09-19T14:54:05;96910.34;;;23.33;53.16
60228;BME280;46091;46.512;6.626;2023-09-19T14:56:10;96901.22;;;23.34;53.25
60228;BME280;46091;46.512;6.626;2023-09-19T14:58:14;96904.16;;;23.32;53.55
60228;BME280;46091;46.512;6.626;2023-09-19T15:00:17;96901.22;;;23.34;53.46
60228;BME280;46091;46.512;6.626;2023-09-19T15:02:24;96901.75;;;23.36;53.76
60228;BME280;46091;46.512;6.626;2023-09-19T15:04:27;96895.25;;;23.37;53.46
60228;BME280;46091;46.512;6.626;2023-09-19T15:06:30;96891.47;;;23.38;53.58
60228;BME280;46091;46.512;6.626;2023-09-19T15:08:35;96895.50;;;23.40;53.68
60228;BME280;46091;46.512;6.626;2023-09-19T15:10:40;96896.31;;;23.41;53.73
60228;BME280;46091;46.512;6.626;2023-09-19T15:12:43;96888.22;;;23.41;53.22
60228;BME280;46091;46.512;6.626;2023-09-19T15:14:46;96895.25;;;23.42;53.79
60228;BME280;46091;46.512;6.626;2023-09-19T15:16:49;96894.97;;;23.43;53.52
60228;BME280;46091;46.512;6.626;2023-09-19T15:18:52;96892.25;;;23.43;53.20
60228;BME280;46091;46.512;6.626;2023-09-19T15:20:56;96890.38;;;23.44;53.19
60228;BME280;46091;46.512;6.626;2023-09-19T15:22:59;96890.38;;;23.44;53.50
60228;BME280;46091;46.512;6.626;2023-09-19T15:25:03;96886.63;;;23.45;53.31
60228;BME280;46091;46.512;6.626;2023-09-19T15:27:07;96890.13;;;23.45;53.69
60228;BME280;46091;46.512;6.626;2023-09-19T15:29:10;96887.44;;;23.45;53.57
60228;BME280;46091;46.512;6.626;2023-09-19T15:31:14;96889.03;;;23.46;53.53
60228;BME280;46091;46.512;6.626;2023-09-19T15:33:18;96883.66;;;23.46;53.70
60228;BME280;46091;46.512;6.626;2023-09-19T15:35:22;96882.03;;;23.45;53.21
60228;BME280;46091;46.512;6.626;2023-09-19T15:37:25;96877.44;;;23.46;53.27
60228;BME280;46091;46.512;6.626;2023-09-19T15:39:30;96880.66;;;23.48;53.29
60228;BME280;46091;46.512;6.626;2023-09-19T15:41:36;96880.94;;;23.46;52.99
60228;BME280;46091;46.512;6.626;2023-09-19T15:43:40;96882.03;;;23.45;52.78
60228;BME280;46091;46.512;6.626;2023-09-19T15:45:42;96880.16;;;23.46;52.85
60228;BME280;46091;46.512;6.626;2023-09-19T15:47:45;96884.97;;;23.49;53.04
60228;BME280;46091;46.512;6.626;2023-09-19T15:49:48;96882.28;;;23.49;53.43
60228;BME280;46091;46.512;6.626;2023-09-19T15:51:53;96882.28;;;23.49;53.14
60228;BME280;46091;46.512;6.626;2023-09-19T15:53:56;96871.25;;;23.45;53.74
60228;BME280;46091;46.512;6.626;2023-09-19T15:56:05;96879.06;;;23.47;53.38
60228;BME280;46091;46.512;6.626;2023-09-19T15:58:07;96877.97;;;23.48;53.53
60228;BME280;46091;46.512;6.626;2023-09-19T16:00:12;96881.19;;;23.50;53.58
60228;BME280;46091;46.512;6.626;2023-09-19T16:02:18;96881.72;;;23.52;53.50
60228;BME280;46091;46.512;6.626;2023-09-19T16:04:21;96879.31;;;23.50;53.33
60228;BME280;46091;46.512;6.626;2023-09-19T16:06:25;96880.13;;;23.51;53.59
60228;BME280;46091;46.512;6.626;2023-09-19T16:08:29;96884.72;;;23.50;53.53
60228;BME280;46091;46.512;6.626;2023-09-19T16:10:34;96878.50;;;23.50;53.68
60228;BME280;46091;46.512;6.626;2023-09-19T16:12:37;96882.81;;;23.51;53.86
60228;BME280;46091;46.512;6.626;2023-09-19T16:14:40;96870.41;;;23.50;53.51
60228;BME280;46091;46.512;6.626;2023-09-19T16:16:43;96874.72;;;23.51;53.21
60228;BME280;46091;46.512;6.626;2023-09-19T16:18:46;96873.09;;;23.50;53.31
60228;BME280;46091;46.512;6.626;2023-09-19T16:20:49;96873.91;;;23.50;53.58
60228;BME280;46091;46.512;6.626;2023-09-19T16:22:52;96874.72;;;23.51;53.17